Time;durP1;ratioP1;P1;durP2;ratioP2;P2;SDS_P1;SDS_P2;PMS_P1;PMS_P2;Temp;Humidity;BMP_temperature;BMP_pressure;BME280_temperature;BME280_humidity;BME280_pressure;Samples;Min_cycle;Max_cycle;Signal;HPM_P1;HPM_P2
2023/12/22 00:00:12;;;;;;;2.28;1.80;;;;;;;;;;4988903;28;20209;-66
2023/12/22 00:02:40;;;;;;;2.92;1.15;;;;;;;;;;4987988;28;20207;-69
2023/12/22 00:05:09;;;;;;;2.47;1.35;;;;;;;;;;4987822;28;20246;-65
2023/12/22 00:07:37;;;;;;;8.25;1.30;;;;;;;;;;4989428;28;20226;-66
2023/12/22 00:10:07;;;;;;;3.80;1.65;;;;;;;;;;4989084;28;20228;-65
2023/12/22 00:12:35;;;;;;;4.95;1.90;;;;;;;;;;4971676;28;20211;-65
2023/12/22 00:15:04;;;;;;;5.70;1.50;;;;;;;;;;4971484;28;20288;-65
2023/12/22 00:17:32;;;;;;;4.53;1.48;;;;;;;;;;4973040;28;20206;-66
2023/12/22 00:20:02;;;;;;;4.80;1.60;;;;;;;;;;4988873;28;20209;-65
2023/12/22 00:22:31;;;;;;;5.50;1.50;;;;;;;;;;4987447;28;20664;-65
2023/12/22 00:24:59;;;;;;;2.78;1.50;;;;;;;;;;4982270;28;20680;-65
2023/12/22 00:27:28;;;;;;;3.63;1.50;;;;;;;;;;4969248;28;20230;-65
2023/12/22 00:29:57;;;;;;;3.13;1.38;;;;;;;;;;4982682;28;20723;-65
2023/12/22 00:32:25;;;;;;;3.42;1.35;;;;;;;;;;4988692;28;20202;-65
2023/12/22 00:34:53;;;;;;;7.10;1.85;;;;;;;;;;4988096;28;20209;-65
2023/12/22 00:37:21;;;;;;;7.28;1.55;;;;;;;;;;5001368;28;20206;-65
2023/12/22 00:39:49;;;;;;;3.15;1.42;;;;;;;;;;4988209;28;20217;-66
2023/12/22 00:42:18;;;;;;;5.22;1.30;;;;;;;;;;4987155;28;20205;-66
2023/12/22 00:44:47;;;;;;;4.35;1.60;;;;;;;;;;4978263;28;20575;-65
2023/12/22 00:47:15;;;;;;;4.10;1.83;;;;;;;;;;4968346;28;20207;-66
2023/12/22 00:49:44;;;;;;;3.75;1.60;;;;;;;;;;4969078;28;20213;-66
2023/12/22 00:52:12;;;;;;;6.43;1.58;;;;;;;;;;4986831;28;20211;-66
2023/12/22 00:54:39;;;;;;;5.75;1.75;;;;;;;;;;4991570;28;20194;-65
2023/12/22 00:57:07;;;;;;;2.83;1.25;;;;;;;;;;4991602;28;20198;-65
2023/12/22 00:59:35;;;;;;;3.45;1.40;;;;;;;;;;4991785;28;20210;-65
2023/12/22 01:02:05;;;;;;;2.58;1.50;;;;;;;;;;4991005;28;20214;-66
2023/12/22 01:04:33;;;;;;;3.20;1.30;;;;;;;;;;4990518;28;20242;-65
2023/12/22 01:07:02;;;;;;;8.38;1.52;;;;;;;;;;4974167;28;20207;-66
2023/12/22 01:09:30;;;;;;;2.17;1.35;;;;;;;;;;4990979;28;20219;-66
2023/12/22 01:11:59;;;;;;;2.13;1.30;;;;;;;;;;4975456;28;20255;-65
2023/12/22 01:14:27;;;;;;;2.80;1.27;;;;;;;;;;4991170;28;20206;-65
2023/12/22 01:16:55;;;;;;;1.95;1.20;;;;;;;;;;4991106;28;20203;-66
2023/12/22 01:19:24;;;;;;;1.92;1.20;;;;;;;;;;4991472;28;20205;-65
2023/12/22 01:21:53;;;;;;;2.78;1.33;;;;;;;;;;4991419;28;20695;-65
2023/12/22 01:24:21;;;;;;;3.58;1.70;;;;;;;;;;4990659;28;20202;-65
2023/12/22 01:26:49;;;;;;;2.17;1.70;;;;;;;;;;4991403;28;20209;-65
2023/12/22 01:29:17;;;;;;;7.72;2.60;;;;;;;;;;4990447;28;20593;-65
2023/12/22 01:31:48;;;;;;;4.72;1.60;;;;;;;;;;4990887;28;20276;-65
2023/12/22 01:34:17;;;;;;;11.43;1.85;;;;;;;;;;4990488;28;20213;-68
2023/12/22 01:36:46;;;;;;;6.45;1.80;;;;;;;;;;4991461;28;20207;-65
2023/12/22 01:39:14;;;;;;;3.63;1.70;;;;;;;;;;4990788;28;20224;-65
2023/12/22 01:41:43;;;;;;;4.30;1.40;;;;;;;;;;4972657;28;20199;-65
2023/12/22 01:44:11;;;;;;;7.32;1.70;;;;;;;;;;4990389;28;20225;-67
2023/12/22 01:46:40;;;;;;;5.90;2.00;;;;;;;;;;4991366;28;20211;-65
2023/12/22 01:49:09;;;;;;;3.13;1.30;;;;;;;;;;4991158;28;20223;-65
2023/12/22 01:51:39;;;;;;;3.67;1.85;;;;;;;;;;4991268;28;20549;-64
2023/12/22 01:54:09;;;;;;;4.05;1.42;;;;;;;;;;4990360;28;20566;-65
2023/12/22 01:56:37;;;;;;;4.70;1.80;;;;;;;;;;4991212;28;20199;-65
2023/12/22 01:59:05;;;;;;;3.85;2.13;;;;;;;;;;4989898;28;20201;-65
2023/12/22 02:01:33;;;;;;;6.72;1.98;;;;;;;;;;4994889;28;20268;-65
2023/12/22 02:04:01;;;;;;;4.10;1.90;;;;;;;;;;4988236;28;20344;-65
2023/12/22 02:06:31;;;;;;;2.70;1.85;;;;;;;;;;4990828;28;20211;-65
2023/12/22 02:09:00;;;;;;;3.58;1.98;;;;;;;;;;4972944;28;20211;-65
2023/12/22 02:11:29;;;;;;;4.30;2.40;;;;;;;;;;4978111;28;20670;-65
2023/12/22 02:13:58;;;;;;;8.70;2.00;;;;;;;;;;4976851;28;20658;-65
2023/12/22 02:16:31;;;;;;;10.52;1.60;;;;;;;;;;4971625;28;20209;-65
2023/12/22 02:19:00;;;;;;;4.00;1.95;;;;;;;;;;4972703;28;20187;-65
2023/12/22 02:21:29;;;;;;;4.50;2.03;;;;;;;;;;4990586;28;20199;-64
2023/12/22 02:24:00;;;;;;;3.50;1.70;;;;;;;;;;4988479;28;20570;-65
2023/12/22 02:26:30;;;;;;;3.45;2.10;;;;;;;;;;4990237;28;20195;-68
2023/12/22 02:28:59;;;;;;;2.00;1.80;;;;;;;;;;4989668;28;20214;-67
2023/12/22 02:31:29;;;;;;;5.90;1.90;;;;;;;;;;4990016;28;20203;-67
2023/12/22 02:33:58;;;;;;;3.60;1.70;;;;;;;;;;4974646;28;20199;-66
2023/12/22 02:36:27;;;;;;;6.50;1.70;;;;;;;;;;4988082;28;20210;-65
2023/12/22 02:38:56;;;;;;;5.03;1.95;;;;;;;;;;4989134;28;20206;-67
2023/12/22 02:41:26;;;;;;;4.60;2.00;;;;;;;;;;4989750;28;20209;-66
2023/12/22 02:43:54;;;;;;;3.08;1.90;;;;;;;;;;4988311;28;20215;-67
2023/12/22 02:46:22;;;;;;;9.07;1.80;;;;;;;;;;4990694;28;20609;-66
2023/12/22 02:48:51;;;;;;;6.55;2.03;;;;;;;;;;4988539;28;20219;-68
2023/12/22 02:51:19;;;;;;;7.50;1.90;;;;;;;;;;4989995;28;21000;-66
2023/12/22 02:53:47;;;;;;;10.80;2.17;;;;;;;;;;4986809;28;20195;-66
2023/12/22 02:56:15;;;;;;;2.38;2.10;;;;;;;;;;4982471;28;20585;-66
2023/12/22 02:58:45;;;;;;;8.23;4.65;;;;;;;;;;4988365;28;20205;-66
2023/12/22 03:01:13;;;;;;;6.30;2.75;;;;;;;;;;4989202;28;20683;-66
2023/12/22 03:03:41;;;;;;;6.82;2.38;;;;;;;;;;4956114;28;20275;-67
2023/12/22 03:06:09;;;;;;;8.35;3.15;;;;;;;;;;4989058;28;20206;-67
2023/12/22 03:08:38;;;;;;;4.10;1.98;;;;;;;;;;4989890;28;20218;-66
2023/12/22 03:11:06;;;;;;;2.22;2.00;;;;;;;;;;4986704;28;20586;-66
2023/12/22 03:13:34;;;;;;;5.05;2.28;;;;;;;;;;4989430;28;20206;-66
2023/12/22 03:16:04;;;;;;;7.28;2.58;;;;;;;;;;4989287;28;20257;-65
2023/12/22 03:18:33;;;;;;;6.20;1.85;;;;;;;;;;4989748;28;20207;-65
2023/12/22 03:21:03;;;;;;;4.25;1.27;;;;;;;;;;4989531;28;20195;-65
2023/12/22 03:23:32;;;;;;;2.58;1.20;;;;;;;;;;4966733;28;20630;-65
2023/12/22 03:26:04;;;;;;;4.70;1.73;;;;;;;;;;4971370;28;20658;-65
2023/12/22 03:28:33;;;;;;;4.82;1.50;;;;;;;;;;4970108;28;20205;-65
2023/12/22 03:31:01;;;;;;;5.45;1.70;;;;;;;;;;4989212;28;20207;-65
2023/12/22 03:33:31;;;;;;;2.20;1.52;;;;;;;;;;4989191;28;20210;-66
2023/12/22 03:35:59;;;;;;;6.53;1.67;;;;;;;;;;4988950;28;20686;-65
2023/12/22 03:38:27;;;;;;;7.43;1.33;;;;;;;;;;4989724;28;20573;-65
2023/12/22 03:40:55;;;;;;;6.22;1.30;;;;;;;;;;4984669;28;20629;-67
2023/12/22 03:43:24;;;;;;;5.20;1.45;;;;;;;;;;4987618;28;20665;-65
2023/12/22 03:45:52;;;;;;;4.28;1.40;;;;;;;;;;4974493;28;20259;-65
2023/12/22 03:48:20;;;;;;;5.20;1.73;;;;;;;;;;4972286;28;20215;-65
2023/12/22 03:50:50;;;;;;;4.25;1.45;;;;;;;;;;4987718;28;20627;-65
2023/12/22 03:53:18;;;;;;;1.52;1.30;;;;;;;;;;4989234;28;20206;-65
2023/12/22 03:55:46;;;;;;;4.97;1.70;;;;;;;;;;4987258;28;20228;-65
2023/12/22 03:58:14;;;;;;;3.00;1.35;;;;;;;;;;4988291;28;20209;-65
2023/12/22 04:00:42;;;;;;;4.85;1.40;;;;;;;;;;4988395;28;20197;-64
2023/12/22 04:03:11;;;;;;;9.60;3.72;;;;;;;;;;4988310;28;20207;-70
2023/12/22 04:05:39;;;;;;;9.85;5.00;;;;;;;;;;4988022;28;20202;-64
2023/12/22 04:08:08;;;;;;;28.48;22.05;;;;;;;;;;4989327;28;20206;-64
2023/12/22 04:10:37;;;;;;;1.67;1.48;;;;;;;;;;4988545;28;20223;-65
2023/12/22 04:13:05;;;;;;;6.18;3.33;;;;;;;;;;4989502;28;20221;-64
2023/12/22 04:15:33;;;;;;;5.13;2.00;;;;;;;;;;4988471;28;20206;-65
2023/12/22 04:18:00;;;;;;;40.65;22.48;;;;;;;;;;4988840;28;20279;-65
2023/12/22 04:20:29;;;;;;;10.68;3.22;;;;;;;;;;4988454;28;20205;-65
2023/12/22 04:22:57;;;;;;;2.38;1.40;;;;;;;;;;4989447;28;20198;-65
2023/12/22 04:25:26;;;;;;;3.25;1.73;;;;;;;;;;4988748;28;20210;-67
2023/12/22 04:27:55;;;;;;;7.30;1.80;;;;;;;;;;4984143;28;20199;-65
2023/12/22 04:30:23;;;;;;;7.00;2.00;;;;;;;;;;4980484;28;20226;-65
2023/12/22 04:32:51;;;;;;;4.38;1.50;;;;;;;;;;4981273;28;20221;-66
2023/12/22 04:35:19;;;;;;;3.47;1.60;;;;;;;;;;4972425;28;20219;-65
2023/12/22 04:37:48;;;;;;;6.95;2.20;;;;;;;;;;4989150;28;20271;-67
2023/12/22 04:40:16;;;;;;;2.08;1.40;;;;;;;;;;4991680;28;20264;-66
2023/12/22 04:42:45;;;;;;;4.70;1.55;;;;;;;;;;4992093;28;20263;-65
2023/12/22 04:45:14;;;;;;;4.70;1.80;;;;;;;;;;4976952;28;20600;-65
2023/12/22 04:47:42;;;;;;;17.90;2.20;;;;;;;;;;4988826;28;20210;-65
2023/12/22 04:50:10;;;;;;;7.75;2.65;;;;;;;;;;4978957;28;20229;-65
2023/12/22 04:52:38;;;;;;;4.88;1.52;;;;;;;;;;4987642;28;20211;-65
2023/12/22 04:55:07;;;;;;;4.35;2.40;;;;;;;;;;4991725;28;20240;-66
2023/12/22 04:57:35;;;;;;;6.65;2.00;;;;;;;;;;4990805;28;20210;-66
2023/12/22 05:00:05;;;;;;;6.82;2.75;;;;;;;;;;4991215;28;20207;-65
2023/12/22 05:02:33;;;;;;;9.13;2.40;;;;;;;;;;4989669;28;20252;-65
2023/12/22 05:05:03;;;;;;;12.00;2.40;;;;;;;;;;4990382;28;20240;-65
2023/12/22 05:07:32;;;;;;;5.65;1.85;;;;;;;;;;4986979;28;20722;-65
2023/12/22 05:10:00;;;;;;;12.25;2.83;;;;;;;;;;4991188;28;20219;-65
2023/12/22 05:12:28;;;;;;;11.50;3.00;;;;;;;;;;4991186;28;20263;-64
2023/12/22 05:14:56;;;;;;;7.28;3.30;;;;;;;;;;4991022;28;20209;-66
2023/12/22 05:17:26;;;;;;;7.97;2.50;;;;;;;;;;4991468;28;20203;-66
2023/12/22 05:19:54;;;;;;;6.68;2.65;;;;;;;;;;4991093;28;20203;-67
2023/12/22 05:22:23;;;;;;;6.65;2.30;;;;;;;;;;4990794;28;20202;-66
2023/12/22 05:24:51;;;;;;;6.13;2.55;;;;;;;;;;4990459;28;20207;-68
2023/12/22 05:27:19;;;;;;;6.15;2.35;;;;;;;;;;4990130;28;20233;-65
2023/12/22 05:29:48;;;;;;;9.88;3.35;;;;;;;;;;4988251;28;20223;-66
2023/12/22 05:32:16;;;;;;;11.65;3.40;;;;;;;;;;4991309;28;20211;-66
2023/12/22 05:34:46;;;;;;;7.47;2.58;;;;;;;;;;4991370;28;20211;-66
2023/12/22 05:37:14;;;;;;;5.13;2.75;;;;;;;;;;4991212;28;20207;-66
2023/12/22 05:39:43;;;;;;;7.88;2.45;;;;;;;;;;4990831;28;20195;-66
2023/12/22 05:42:11;;;;;;;9.05;2.60;;;;;;;;;;4990619;28;20547;-66
2023/12/22 05:44:40;;;;;;;8.82;2.58;;;;;;;;;;4980119;28;20291;-64
2023/12/22 05:47:10;;;;;;;10.35;3.60;;;;;;;;;;4985253;28;20654;-66
2023/12/22 05:49:41;;;;;;;11.60;2.90;;;;;;;;;;4974176;28;20208;-66
2023/12/22 05:52:10;;;;;;;9.45;3.10;;;;;;;;;;4971279;28;20188;-67
2023/12/22 05:54:39;;;;;;;5.88;2.75;;;;;;;;;;5001165;28;20210;-67
2023/12/22 05:57:10;;;;;;;9.57;2.88;;;;;;;;;;4991152;28;20625;-66
2023/12/22 05:59:38;;;;;;;6.88;2.88;;;;;;;;;;4991481;28;20211;-66
2023/12/22 06:02:07;;;;;;;6.30;2.95;;;;;;;;;;4990381;28;20206;-66
2023/12/22 06:04:35;;;;;;;4.60;2.58;;;;;;;;;;4988709;28;20263;-67
2023/12/22 06:07:04;;;;;;;7.10;3.05;;;;;;;;;;4990585;28;20203;-67
2023/12/22 06:09:34;;;;;;;8.57;3.95;;;;;;;;;;4990886;28;20210;-67
2023/12/22 06:12:02;;;;;;;6.63;2.90;;;;;;;;;;4981781;28;20199;-64
2023/12/22 06:14:31;;;;;;;5.78;2.50;;;;;;;;;;4975754;28;20207;-64
2023/12/22 06:16:59;;;;;;;5.85;2.80;;;;;;;;;;4982525;28;20622;-65
2023/12/22 06:19:30;;;;;;;7.60;2.80;;;;;;;;;;4990315;28;20214;-67
2023/12/22 06:21:59;;;;;;;5.13;2.53;;;;;;;;;;4990536;28;20263;-67
2023/12/22 06:24:28;;;;;;;8.85;3.40;;;;;;;;;;4984354;28;20210;-67
2023/12/22 06:26:57;;;;;;;5.82;2.45;;;;;;;;;;4971580;28;20203;-66
2023/12/22 06:29:25;;;;;;;5.05;2.40;;;;;;;;;;4970212;28;20559;-66
2023/12/22 06:31:54;;;;;;;8.40;3.22;;;;;;;;;;4987187;28;20211;-67
2023/12/22 06:34:22;;;;;;;5.72;2.30;;;;;;;;;;4978613;28;20732;-68
2023/12/22 06:36:51;;;;;;;7.13;3.75;;;;;;;;;;4988754;28;20213;-66
2023/12/22 06:39:21;;;;;;;4.43;2.78;;;;;;;;;;4989494;28;20206;-66
2023/12/22 06:41:49;;;;;;;7.80;2.70;;;;;;;;;;4987352;28;20195;-67
2023/12/22 06:44:18;;;;;;;5.78;2.60;;;;;;;;;;4976234;28;20223;-67
2023/12/22 06:46:47;;;;;;;4.05;2.10;;;;;;;;;;4988976;28;20647;-65
2023/12/22 06:49:15;;;;;;;9.10;2.97;;;;;;;;;;4989436;28;20240;-65
2023/12/22 06:51:44;;;;;;;6.50;2.10;;;;;;;;;;4988497;28;20692;-65
2023/12/22 06:54:12;;;;;;;4.07;1.83;;;;;;;;;;4986083;28;20206;-65
2023/12/22 06:56:40;;;;;;;10.48;1.83;;;;;;;;;;4988768;28;20213;-65
2023/12/22 06:59:11;;;;;;;8.63;2.67;;;;;;;;;;4988739;28;20194;-66
2023/12/22 07:01:41;;;;;;;6.25;2.42;;;;;;;;;;4989366;28;20191;-65
2023/12/22 07:04:12;;;;;;;4.57;1.85;;;;;;;;;;4982464;28;20223;-65
2023/12/22 07:06:41;;;;;;;6.72;3.03;;;;;;;;;;4981276;28;20195;-69
2023/12/22 07:09:28;;;;;;;4.50;2.08;;;;;;;;;;4980597;28;20195;-65
2023/12/22 07:11:57;;;;;;;7.80;2.60;;;;;;;;;;5023184;28;20215;-64
2023/12/22 07:14:25;;;;;;;7.60;2.50;;;;;;;;;;4988782;28;20762;-64
2023/12/22 07:16:54;;;;;;;4.90;2.55;;;;;;;;;;4987854;28;20642;-66
2023/12/22 07:19:23;;;;;;;8.55;2.53;;;;;;;;;;4986695;28;20210;-67
2023/12/22 07:21:51;;;;;;;11.52;2.90;;;;;;;;;;4976883;28;20603;-64
2023/12/22 07:24:19;;;;;;;9.43;1.95;;;;;;;;;;4983160;28;20237;-66
2023/12/22 07:26:48;;;;;;;10.52;2.97;;;;;;;;;;4987968;28;20195;-66
2023/12/22 07:29:16;;;;;;;3.50;1.73;;;;;;;;;;4986569;28;20528;-66
2023/12/22 07:31:44;;;;;;;12.52;2.70;;;;;;;;;;4983312;28;20218;-66
2023/12/22 07:34:14;;;;;;;17.35;3.60;;;;;;;;;;4988166;28;20194;-67
2023/12/22 07:36:42;;;;;;;12.32;4.90;;;;;;;;;;4988169;28;20202;-66
2023/12/22 07:39:11;;;;;;;11.50;4.20;;;;;;;;;;4987112;28;20211;-69
2023/12/22 07:41:39;;;;;;;6.65;2.70;;;;;;;;;;4986859;28;20213;-63
2023/12/22 07:44:08;;;;;;;8.77;2.17;;;;;;;;;;4978113;28;20229;-63
2023/12/22 07:46:36;;;;;;;7.72;2.42;;;;;;;;;;4988724;28;20198;-64
2023/12/22 07:49:04;;;;;;;8.30;2.03;;;;;;;;;;4971560;28;20195;-65
2023/12/22 07:51:34;;;;;;;8.65;2.10;;;;;;;;;;4988663;28;20554;-64
2023/12/22 07:54:02;;;;;;;8.60;2.30;;;;;;;;;;4989817;28;20207;-66
2023/12/22 07:56:30;;;;;;;5.35;2.20;;;;;;;;;;4988776;28;20210;-66
2023/12/22 07:59:00;;;;;;;11.48;2.28;;;;;;;;;;4987325;28;20197;-66
2023/12/22 08:01:28;;;;;;;8.02;1.83;;;;;;;;;;4983726;28;20203;-65
2023/12/22 08:03:56;;;;;;;6.78;2.28;;;;;;;;;;4983170;28;20599;-64
2023/12/22 08:06:24;;;;;;;8.60;2.10;;;;;;;;;;4987394;28;20213;-66
2023/12/22 08:08:55;;;;;;;12.63;2.28;;;;;;;;;;5008148;28;20240;-65
2023/12/22 08:11:25;;;;;;;16.42;2.90;;;;;;;;;;4987739;28;20225;-66
2023/12/22 08:13:53;;;;;;;10.18;4.20;;;;;;;;;;4972138;28;20662;-66
2023/12/22 08:16:21;;;;;;;8.68;2.75;;;;;;;;;;4986891;28;20672;-67
2023/12/22 08:18:50;;;;;;;10.35;3.20;;;;;;;;;;4971323;28;20207;-67
2023/12/22 08:21:18;;;;;;;10.82;3.78;;;;;;;;;;4987941;28;20215;-66
2023/12/22 08:23:47;;;;;;;12.88;4.18;;;;;;;;;;4988269;28;20206;-67
2023/12/22 08:26:17;;;;;;;9.35;2.97;;;;;;;;;;4987528;28;20199;-67
2023/12/22 08:28:46;;;;;;;12.05;3.67;;;;;;;;;;4971373;28;20213;-67
2023/12/22 08:31:14;;;;;;;18.00;3.65;;;;;;;;;;4987525;28;20222;-67
2023/12/22 08:33:43;;;;;;;17.77;3.70;;;;;;;;;;4988954;28;20657;-68
2023/12/22 08:36:14;;;;;;;13.13;3.92;;;;;;;;;;4987786;28;20209;-67
2023/12/22 08:38:43;;;;;;;24.27;3.67;;;;;;;;;;4988291;28;20216;-67
2023/12/22 08:41:11;;;;;;;13.73;3.80;;;;;;;;;;4962445;28;20210;-70
2023/12/22 08:43:42;;;;;;;11.27;3.08;;;;;;;;;;4982181;28;20230;-68
2023/12/22 08:46:11;;;;;;;12.50;3.35;;;;;;;;;;4970956;28;20588;-66
2023/12/22 08:48:40;;;;;;;17.75;4.50;;;;;;;;;;4988463;28;20203;-66
2023/12/22 08:51:08;;;;;;;15.00;4.30;;;;;;;;;;4987552;28;20203;-67
2023/12/22 08:53:38;;;;;;;14.75;3.65;;;;;;;;;;4987565;28;20213;-67
2023/12/22 08:56:07;;;;;;;11.23;4.07;;;;;;;;;;4988556;28;20224;-67
2023/12/22 08:58:35;;;;;;;11.90;3.80;;;;;;;;;;4988015;28;20606;-67
2023/12/22 09:01:15;;;;;;;18.05;3.63;;;;;;;;;;4985869;28;20206;-67
2023/12/22 09:03:46;;;;;;;11.30;3.00;;;;;;;;;;4971752;28;20239;-67
2023/12/22 09:06:18;;;;;;;13.52;3.17;;;;;;;;;;4980693;28;20205;-67
2023/12/22 09:08:46;;;;;;;11.98;3.47;;;;;;;;;;4987314;28;20187;-67
2023/12/22 09:11:15;;;;;;;14.85;3.05;;;;;;;;;;4987109;28;20205;-67
2023/12/22 09:13:44;;;;;;;8.02;2.53;;;;;;;;;;4988365;28;20210;-67
2023/12/22 09:16:15;;;;;;;10.27;3.95;;;;;;;;;;4990666;28;20210;-67
2023/12/22 09:18:44;;;;;;;22.05;4.63;;;;;;;;;;4990530;28;20578;-67
2023/12/22 09:21:12;;;;;;;10.57;4.25;;;;;;;;;;4973671;28;20262;-67
2023/12/22 09:23:44;;;;;;;16.40;4.03;;;;;;;;;;4990855;28;20217;-67
2023/12/22 09:26:12;;;;;;;12.80;4.03;;;;;;;;;;4991388;28;20210;-67
2023/12/22 09:28:40;;;;;;;11.57;3.65;;;;;;;;;;4990770;28;20259;-67
2023/12/22 09:31:09;;;;;;;11.65;3.38;;;;;;;;;;4990174;28;20207;-67
2023/12/22 09:33:39;;;;;;;13.25;3.58;;;;;;;;;;4977446;28;20746;-67
2023/12/22 09:36:08;;;;;;;9.57;3.17;;;;;;;;;;4978521;28;20702;-67
2023/12/22 09:38:36;;;;;;;15.35;4.22;;;;;;;;;;4990094;28;20206;-67
2023/12/22 09:41:04;;;;;;;15.07;4.07;;;;;;;;;;4970951;28;20201;-67
2023/12/22 09:43:36;;;;;;;11.10;3.85;;;;;;;;;;4991340;28;20649;-67
2023/12/22 09:46:05;;;;;;;10.35;3.72;;;;;;;;;;4989823;28;20197;-67
2023/12/22 09:48:35;;;;;;;13.43;3.13;;;;;;;;;;4989266;28;20195;-67
2023/12/22 09:51:06;;;;;;;11.32;3.50;;;;;;;;;;4988112;28;20548;-67
2023/12/22 09:53:34;;;;;;;9.05;3.60;;;;;;;;;;4987148;28;20292;-67
2023/12/22 09:56:05;;;;;;;27.65;4.57;;;;;;;;;;4973747;28;20199;-67
2023/12/22 09:58:35;;;;;;;20.23;3.75;;;;;;;;;;4989812;28;20539;-67
2023/12/22 10:01:05;;;;;;;18.23;3.75;;;;;;;;;;4988427;28;20213;-68
2023/12/22 10:03:34;;;;;;;19.80;5.15;;;;;;;;;;4971872;28;20230;-68
2023/12/22 10:06:02;;;;;;;22.38;4.60;;;;;;;;;;4988564;28;20556;-68
2023/12/22 10:08:32;;;;;;;16.88;3.80;;;;;;;;;;4987930;28;20207;-68
2023/12/22 10:11:00;;;;;;;13.25;3.97;;;;;;;;;;4989583;28;20207;-68
2023/12/22 10:13:29;;;;;;;14.35;3.42;;;;;;;;;;4989845;28;20692;-68
2023/12/22 10:15:58;;;;;;;12.75;5.05;;;;;;;;;;4983920;28;20206;-68
2023/12/22 10:18:26;;;;;;;11.55;3.85;;;;;;;;;;4984542;28;20202;-68
2023/12/22 10:20:55;;;;;;;8.43;2.78;;;;;;;;;;4970673;28;20217;-68
2023/12/22 10:23:23;;;;;;;11.93;3.13;;;;;;;;;;4983649;28;20569;-66
2023/12/22 10:25:56;;;;;;;10.98;2.90;;;;;;;;;;4988939;28;20537;-68
2023/12/22 10:28:26;;;;;;;9.32;3.35;;;;;;;;;;4989505;28;20597;-68
2023/12/22 10:30:57;;;;;;;14.55;4.32;;;;;;;;;;4995518;28;20676;-68
2023/12/22 10:33:25;;;;;;;15.88;4.15;;;;;;;;;;4989310;28;20219;-68
2023/12/22 10:35:55;;;;;;;15.38;2.80;;;;;;;;;;4990180;28;20555;-68
2023/12/22 10:38:24;;;;;;;24.75;3.78;;;;;;;;;;4991312;28;20211;-68
2023/12/22 10:40:52;;;;;;;15.98;2.95;;;;;;;;;;4974732;28;20600;-68
2023/12/22 10:43:22;;;;;;;15.35;3.30;;;;;;;;;;4989132;28;20209;-69
2023/12/22 10:45:53;;;;;;;16.55;3.72;;;;;;;;;;4990230;28;20190;-68
2023/12/22 10:48:26;;;;;;;16.65;4.32;;;;;;;;;;4989987;28;20205;-68
2023/12/22 10:50:54;;;;;;;14.93;3.67;;;;;;;;;;4989706;28;20213;-68
2023/12/22 10:53:23;;;;;;;18.60;3.58;;;;;;;;;;4991940;28;20214;-68
2023/12/22 10:55:52;;;;;;;10.25;3.10;;;;;;;;;;4989723;28;20211;-68
2023/12/22 10:58:23;;;;;;;7.15;3.22;;;;;;;;;;4987001;28;20646;-68
2023/12/22 11:00:52;;;;;;;18.17;4.40;;;;;;;;;;4988112;28;20213;-68
2023/12/22 11:03:23;;;;;;;19.02;4.50;;;;;;;;;;4987176;28;20198;-68
2023/12/22 11:05:52;;;;;;;8.38;3.42;;;;;;;;;;4980014;28;20234;-68
2023/12/22 11:08:21;;;;;;;15.15;4.72;;;;;;;;;;4972995;28;20268;-69
2023/12/22 11:10:54;;;;;;;14.85;3.15;;;;;;;;;;4986138;28;20217;-68
2023/12/22 11:13:28;;;;;;;10.02;2.65;;;;;;;;;;4987800;28;20707;-68
2023/12/22 11:15:57;;;;;;;10.40;3.00;;;;;;;;;;4989251;28;20217;-68
2023/12/22 11:18:25;;;;;;;12.05;2.92;;;;;;;;;;4989380;28;20609;-68
2023/12/22 11:20:53;;;;;;;11.05;2.55;;;;;;;;;;4989405;28;20206;-68
2023/12/22 11:23:22;;;;;;;13.48;2.75;;;;;;;;;;4988703;28;20228;-68
2023/12/22 11:25:53;;;;;;;11.57;3.20;;;;;;;;;;4988020;28;20206;-68
2023/12/22 11:28:22;;;;;;;10.35;2.75;;;;;;;;;;4987856;28;20199;-68
2023/12/22 11:30:52;;;;;;;3.78;2.30;;;;;;;;;;4987949;28;20279;-68
2023/12/22 11:33:21;;;;;;;6.35;2.50;;;;;;;;;;4986206;28;20211;-68
2023/12/22 11:35:49;;;;;;;9.40;2.22;;;;;;;;;;4971517;28;20210;-68
2023/12/22 11:38:19;;;;;;;14.20;2.97;;;;;;;;;;4988418;28;20195;-68
2023/12/22 11:40:49;;;;;;;6.85;2.67;;;;;;;;;;4989591;28;20198;-68
2023/12/22 11:43:18;;;;;;;5.53;2.17;;;;;;;;;;4969983;28;20653;-68
2023/12/22 11:45:46;;;;;;;6.28;1.67;;;;;;;;;;4981126;28;20669;-68
2023/12/22 11:48:16;;;;;;;6.00;1.70;;;;;;;;;;4988088;28;20224;-68
2023/12/22 11:50:45;;;;;;;5.80;1.65;;;;;;;;;;4988367;28;20263;-68
2023/12/22 11:53:20;;;;;;;6.28;2.20;;;;;;;;;;4988535;28;20210;-68
2023/12/22 11:56:04;;;;;;;8.10;1.58;;;;;;;;;;4989209;28;20194;-68
2023/12/22 11:58:36;;;;;;;5.40;1.80;;;;;;;;;;4969650;28;20236;-69
2023/12/22 12:01:05;;;;;;;3.75;1.70;;;;;;;;;;4981444;28;20221;-68
2023/12/22 12:03:42;;;;;;;2.65;1.50;;;;;;;;;;4987432;28;20234;-68
2023/12/22 12:06:18;;;;;;;1.23;0.90;;;;;;;;;;4988118;28;20216;-68
2023/12/22 12:08:48;;;;;;;3.38;1.52;;;;;;;;;;4988929;28;20251;-69
2023/12/22 12:11:16;;;;;;;2.60;1.50;;;;;;;;;;4989062;28;20201;-69
2023/12/22 12:13:46;;;;;;;4.97;1.55;;;;;;;;;;4970955;28;20588;-68
2023/12/22 12:16:15;;;;;;;6.68;1.73;;;;;;;;;;4987997;28;20202;-68
2023/12/22 12:18:44;;;;;;;5.13;1.50;;;;;;;;;;4988671;28;20259;-68
2023/12/22 12:21:13;;;;;;;4.60;2.28;;;;;;;;;;4988066;28;20199;-69
2023/12/22 12:23:42;;;;;;;4.97;1.52;;;;;;;;;;4976512;28;20225;-68
2023/12/22 12:26:11;;;;;;;4.13;1.80;;;;;;;;;;4988567;28;20211;-69
2023/12/22 12:28:39;;;;;;;2.33;1.58;;;;;;;;;;4989434;28;20286;-71
2023/12/22 12:31:08;;;;;;;6.40;1.88;;;;;;;;;;4992839;28;20419;-70
2023/12/22 12:33:37;;;;;;;4.85;1.83;;;;;;;;;;4994732;28;20305;-72
2023/12/22 12:36:07;;;;;;;5.18;2.10;;;;;;;;;;4983957;28;20289;-69
2023/12/22 12:38:38;;;;;;;2.58;2.05;;;;;;;;;;4995653;28;20262;-72
2023/12/22 12:41:06;;;;;;;8.38;1.88;;;;;;;;;;4999919;28;20262;-69
2023/12/22 12:43:35;;;;;;;2.78;2.20;;;;;;;;;;4992645;28;20281;-70
2023/12/22 12:46:06;;;;;;;2.92;1.83;;;;;;;;;;4983718;28;20262;-68
2023/12/22 12:48:34;;;;;;;2.90;1.42;;;;;;;;;;5001477;28;20254;-68
2023/12/22 12:51:04;;;;;;;5.10;1.70;;;;;;;;;;5003661;28;20277;-69
2023/12/22 12:53:34;;;;;;;2.88;1.70;;;;;;;;;;5003704;28;20347;-68
2023/12/22 12:56:02;;;;;;;1.67;1.30;;;;;;;;;;5003832;28;20270;-68
2023/12/22 12:58:34;;;;;;;1.45;1.05;;;;;;;;;;5003884;28;20571;-68
2023/12/22 13:01:06;;;;;;;1.65;1.30;;;;;;;;;;4998263;28;20611;-68
2023/12/22 13:03:34;;;;;;;3.35;1.20;;;;;;;;;;4996706;28;20289;-69
2023/12/22 13:06:09;;;;;;;1.67;0.98;;;;;;;;;;5004596;28;20201;-69
2023/12/22 13:08:40;;;;;;;1.15;1.05;;;;;;;;;;4989175;28;20275;-70
2023/12/22 13:11:09;;;;;;;2.10;1.10;;;;;;;;;;5006352;28;20268;-68
2023/12/22 13:13:42;;;;;;;2.92;1.23;;;;;;;;;;5002000;28;20270;-69
2023/12/22 13:16:11;;;;;;;3.08;1.80;;;;;;;;;;4990748;28;20262;-72
2023/12/22 13:18:40;;;;;;;1.35;1.13;;;;;;;;;;5006762;28;20267;-69
2023/12/22 13:21:08;;;;;;;2.35;1.05;;;;;;;;;;5005132;28;20617;-70
2023/12/22 13:23:36;;;;;;;3.40;2.53;;;;;;;;;;4994689;28;20974;-68
2023/12/22 13:26:06;;;;;;;4.47;1.80;;;;;;;;;;5001676;28;20286;-69
2023/12/22 13:28:34;;;;;;;1.50;1.35;;;;;;;;;;5000231;28;20286;-70
2023/12/22 13:31:02;;;;;;;2.03;1.15;;;;;;;;;;5003149;28;20281;-68
2023/12/22 13:33:35;;;;;;;1.40;1.30;;;;;;;;;;5024827;28;20308;-71
2023/12/22 13:36:03;;;;;;;1.13;1.02;;;;;;;;;;5002916;28;20230;-69
2023/12/22 13:38:32;;;;;;;1.23;1.13;;;;;;;;;;5005115;28;20255;-69
2023/12/22 13:41:00;;;;;;;2.97;1.85;;;;;;;;;;5001317;28;20313;-69
2023/12/22 13:43:31;;;;;;;1.92;1.30;;;;;;;;;;5001816;28;20258;-72
2023/12/22 13:45:59;;;;;;;1.45;0.95;;;;;;;;;;5005927;28;20274;-71
2023/12/22 13:48:27;;;;;;;1.50;0.90;;;;;;;;;;5003795;28;20265;-71
2023/12/22 13:50:59;;;;;;;2.15;0.93;;;;;;;;;;5010515;28;20222;-71
2023/12/22 13:53:28;;;;;;;1.30;0.98;;;;;;;;;;5011092;28;20253;-71
2023/12/22 13:55:56;;;;;;;0.60;0.60;;;;;;;;;;5011373;28;20234;-71
2023/12/22 13:58:25;;;;;;;0.70;0.70;;;;;;;;;;5011421;28;20226;-72
2023/12/22 14:00:55;;;;;;;0.70;0.70;;;;;;;;;;4993081;28;20230;-71
2023/12/22 14:03:23;;;;;;;0.80;0.80;;;;;;;;;;4993323;28;20227;-72
2023/12/22 14:05:51;;;;;;;0.80;0.80;;;;;;;;;;5010224;28;20549;-71
2023/12/22 14:08:19;;;;;;;1.08;1.00;;;;;;;;;;5011632;28;20240;-71
2023/12/22 14:10:50;;;;;;;1.40;0.70;;;;;;;;;;5012025;28;20229;-72
2023/12/22 14:13:21;;;;;;;0.90;0.70;;;;;;;;;;5010798;28;20230;-71
2023/12/22 14:15:52;;;;;;;0.60;0.60;;;;;;;;;;5011166;28;20230;-72
2023/12/22 14:18:22;;;;;;;0.80;0.70;;;;;;;;;;5011261;28;20218;-71
2023/12/22 14:20:50;;;;;;;0.80;0.80;;;;;;;;;;5010482;28;20230;-71
2023/12/22 14:23:18;;;;;;;0.60;0.60;;;;;;;;;;5010391;28;20502;-71
2023/12/22 14:25:46;;;;;;;0.90;0.73;;;;;;;;;;5011297;28;20238;-72
2023/12/22 14:28:15;;;;;;;2.58;0.90;;;;;;;;;;5010640;28;20242;-72
2023/12/22 14:30:43;;;;;;;2.78;1.05;;;;;;;;;;5010599;28;20673;-71
2023/12/22 14:33:11;;;;;;;3.03;1.02;;;;;;;;;;5010442;28;20263;-72
2023/12/22 14:35:41;;;;;;;1.02;0.75;;;;;;;;;;5010183;28;20269;-72
2023/12/22 14:38:09;;;;;;;0.90;0.85;;;;;;;;;;5010753;28;20237;-71
2023/12/22 14:40:37;;;;;;;1.63;1.05;;;;;;;;;;5015758;28;20260;-71
2023/12/22 14:43:05;;;;;;;2.55;2.35;;;;;;;;;;5010755;28;20222;-70
2023/12/22 14:45:34;;;;;;;6.20;3.30;;;;;;;;;;5004770;28;20254;-72
2023/12/22 14:48:02;;;;;;;18.15;7.35;;;;;;;;;;4993349;28;20234;-71